This is the latest recevied weather packets stored in our database for station/object CA3EAP-13. If no packets are shown the sender has not sent any weather packets the latest 10 day(s).
| Time | Temp. | Humidity | Pressure | Rain* | Wind** | Luminosity | Snow |
|---|---|---|---|---|---|---|---|
| 1777674305 | 17.78° C | 66% | 1018.5 hPa | - | - | - | - |
| 1777673704 | 17.78° C | 65% | 1018.5 hPa | - | - | - | - |
| 1777673104 | 18.33° C | 65% | 1018.5 hPa | - | - | - | - |
| 1777672504 | 18.33° C | 65% | 1018.6 hPa | - | - | - | - |
| 1777671904 | 18.33° C | 64% | 1018.6 hPa | - | - | - | - |
| 1777671304 | 18.89° C | 63% | 1018.5 hPa | - | - | - | - |
| 1777670704 | 18.89° C | 62% | 1018.6 hPa | - | - | - | - |
| 1777670104 | 18.89° C | 62% | 1018.7 hPa | - | - | - | - |
| 1777669504 | 18.89° C | 62% | 1018.9 hPa | - | - | - | - |
| 1777668904 | 18.89° C | 62% | 1018.9 hPa | - | - | - | - |
| 1777668304 | 18.89° C | 63% | 1019.1 hPa | - | - | - | - |
| 1777667704 | 18.89° C | 63% | 1019 hPa | - | - | - | - |
| 1777667104 | 18.33° C | 65% | 1019 hPa | - | - | - | - |
| 1777666504 | 18.33° C | 65% | 1018.8 hPa | - | - | - | - |
| 1777665904 | 17.78° C | 66% | 1019 hPa | - | - | - | - |
| 1777665304 | 17.78° C | 67% | 1018.9 hPa | - | - | - | - |
| 1777664704 | 16.67° C | 71% | 1019.3 hPa | - | - | - | - |
| 1777664104 | 16.67° C | 71% | 1019.2 hPa | - | - | - | - |
| 1777663504 | 17.22° C | 68% | 1019 hPa | - | - | - | - |
| 1777662904 | 18.33° C | 65% | 1018.7 hPa | - | - | - | - |
| 1777662304 | 17.22° C | 67% | 1018.9 hPa | - | - | - | - |
| 1777661705 | 17.78° C | 65% | 1018.6 hPa | - | - | - | - |
| 1777661104 | 17.78° C | 65% | 1018.4 hPa | - | - | - | - |
| 1777660504 | 18.33° C | 64% | 1018.2 hPa | - | - | - | - |
| 1777659904 | 16.67° C | 68% | 1018.5 hPa | - | - | - | - |
* Rain since midnight (hover to see other rain measurements)
** Current wind speed in m/s (hover to see current wind gust speed)